Time;durP1;ratioP1;P1;durP2;ratioP2;P2;SDS_P1;SDS_P2;PMS_P1;PMS_P2;Temp;Humidity;BMP_temperature;BMP_pressure;BME280_temperature;BME280_humidity;BME280_pressure;Samples;Min_cycle;Max_cycle;Signal;HPM_P1;HPM_P2
2022/07/13 00:01:15;;;;;;;3.33;3.03;;;23.70;67.50;;;;;;5013747;28;20022;-46
2022/07/13 00:03:41;;;;;;;3.40;3.10;;;23.70;68.00;;;;;;5013095;28;20100;-46
2022/07/13 00:06:07;;;;;;;3.13;2.83;;;23.50;68.60;;;;;;5013696;28;20026;-46
2022/07/13 00:08:33;;;;;;;3.20;2.92;;;23.40;69.00;;;;;;5013829;28;20054;-46
2022/07/13 00:10:59;;;;;;;3.13;2.83;;;23.30;69.20;;;;;;5013592;28;20029;-46
2022/07/13 00:13:25;;;;;;;3.45;3.08;;;23.30;69.60;;;;;;5013668;28;20044;-45
2022/07/13 00:15:51;;;;;;;3.45;3.15;;;23.20;69.70;;;;;;5013517;28;20135;-46
2022/07/13 00:18:17;;;;;;;4.18;3.22;;;23.20;69.90;;;;;;5013910;28;20097;-46
2022/07/13 00:20:45;;;;;;;3.30;3.10;;;23.20;70.10;;;;;;5013798;28;20164;-46
2022/07/13 00:23:11;;;;;;;3.30;3.00;;;23.20;70.30;;;;;;5013480;28;20033;-46
2022/07/13 00:25:36;;;;;;;4.30;3.10;;;23.20;70.50;;;;;;5013536;28;20025;-45
2022/07/13 00:28:02;;;;;;;3.40;3.20;;;23.10;70.70;;;;;;5013433;28;20493;-46
2022/07/13 00:30:27;;;;;;;4.13;3.40;;;23.20;70.90;;;;;;5013117;28;20039;-46
2022/07/13 00:32:53;;;;;;;3.50;3.20;;;23.10;70.90;;;;;;5013110;28;20056;-46
2022/07/13 00:35:18;;;;;;;3.60;3.30;;;23.10;71.10;;;;;;5013534;28;20101;-46
2022/07/13 00:37:44;;;;;;;3.92;3.40;;;23.10;71.30;;;;;;5013673;28;20033;-43
2022/07/13 00:40:10;;;;;;;4.47;3.00;;;23.00;71.50;;;;;;5013285;28;20026;-48
2022/07/13 00:42:36;;;;;;;3.55;3.25;;;23.00;71.70;;;;;;5013262;28;20502;-46
2022/07/13 00:45:01;;;;;;;3.17;2.88;;;22.90;71.80;;;;;;5013305;28;20022;-46
2022/07/13 00:47:34;;;;;;;3.83;3.53;;;22.90;72.00;;;;;;5011548;28;20037;-46
2022/07/13 00:50:01;;;;;;;3.88;3.47;;;22.90;72.20;;;;;;5012696;28;20110;-45
2022/07/13 00:52:27;;;;;;;4.63;3.42;;;22.80;72.20;;;;;;5012731;28;20045;-45
2022/07/13 00:54:53;;;;;;;4.00;3.55;;;22.90;72.30;;;;;;5013033;28;20436;-45
2022/07/13 00:57:19;;;;;;;3.80;3.50;;;22.90;72.40;;;;;;5012688;28;20026;-45
2022/07/13 00:59:46;;;;;;;4.28;3.40;;;22.80;72.40;;;;;;5012733;28;20021;-45
2022/07/13 01:02:12;;;;;;;3.55;3.25;;;22.80;72.60;;;;;;5012872;28;20018;-46
2022/07/13 01:04:38;;;;;;;3.78;3.47;;;22.80;72.70;;;;;;5012638;28;20053;-46
2022/07/13 01:07:04;;;;;;;4.50;3.30;;;22.70;73.40;;;;;;5012851;28;20394;-46
2022/07/13 01:09:30;;;;;;;4.13;3.38;;;22.80;72.90;;;;;;5012594;28;20589;-46
2022/07/13 01:11:56;;;;;;;3.80;3.50;;;22.70;72.90;;;;;;5012769;28;20057;-46
2022/07/13 01:14:23;;;;;;;3.83;3.45;;;22.70;73.00;;;;;;5015272;28;20030;-46
2022/07/13 01:16:49;;;;;;;3.83;3.53;;;22.70;73.10;;;;;;5016305;28;20127;-46
2022/07/13 01:19:15;;;;;;;3.85;3.45;;;22.70;73.10;;;;;;5016551;28;20050;-46
2022/07/13 01:21:43;;;;;;;4.72;3.35;;;22.70;73.10;;;;;;5016650;28;20022;-46
2022/07/13 01:24:09;;;;;;;4.30;3.53;;;22.70;73.20;;;;;;5016430;28;20030;-47
2022/07/13 01:26:37;;;;;;;3.80;3.50;;;22.70;73.20;;;;;;5016479;28;20014;-46
2022/07/13 01:29:03;;;;;;;3.60;3.30;;;22.70;73.20;;;;;;5016770;28;20030;-46
2022/07/13 01:31:39;;;;;;;3.50;3.20;;;22.70;73.20;;;;;;5016575;28;20033;-46
2022/07/13 01:34:06;;;;;;;3.58;3.28;;;22.70;73.40;;;;;;5015996;28;20061;-46
2022/07/13 01:36:36;;;;;;;3.53;3.22;;;22.70;73.30;;;;;;5016368;28;20026;-46
2022/07/13 01:39:03;;;;;;;3.38;3.10;;;22.70;73.40;;;;;;5016720;28;20025;-46
2022/07/13 01:41:29;;;;;;;5.50;3.60;;;22.70;73.40;;;;;;5016734;28;20030;-46
2022/07/13 01:43:57;;;;;;;3.80;3.50;;;22.70;73.40;;;;;;5016736;28;20029;-46
2022/07/13 01:46:24;;;;;;;3.58;3.28;;;22.70;73.40;;;;;;5016268;28;20054;-46
2022/07/13 01:48:50;;;;;;;4.13;3.83;;;22.70;73.60;;;;;;5016363;28;20030;-46
2022/07/13 01:51:15;;;;;;;3.83;3.40;;;22.60;73.60;;;;;;5015982;28;20029;-46
2022/07/13 01:53:41;;;;;;;3.67;3.38;;;22.60;73.60;;;;;;5015891;28;20452;-46
2022/07/13 01:56:07;;;;;;;5.00;3.90;;;22.60;73.60;;;;;;5015806;28;20022;-46
2022/07/13 01:58:32;;;;;;;3.60;3.30;;;22.60;73.60;;;;;;5015993;28;20088;-46
2022/07/13 02:00:58;;;;;;;5.22;3.63;;;22.60;73.60;;;;;;5014333;28;20022;-46
2022/07/13 02:03:24;;;;;;;3.30;3.00;;;22.60;73.60;;;;;;5015948;28;20024;-46
2022/07/13 02:05:50;;;;;;;3.83;3.40;;;22.70;73.60;;;;;;5015977;28;20042;-46
2022/07/13 02:08:15;;;;;;;3.72;3.42;;;22.60;73.50;;;;;;5015554;28;20504;-46
2022/07/13 02:10:41;;;;;;;3.80;3.50;;;22.60;73.40;;;;;;5015656;28;20025;-46
2022/07/13 02:13:08;;;;;;;3.60;3.30;;;22.60;73.40;;;;;;5015418;28;20034;-47
2022/07/13 02:15:35;;;;;;;3.70;3.40;;;22.60;73.30;;;;;;5015450;28;20054;-45
2022/07/13 02:18:00;;;;;;;3.67;3.38;;;22.60;73.30;;;;;;5015276;28;20068;-45
2022/07/13 02:20:26;;;;;;;3.22;2.90;;;22.60;73.20;;;;;;5015379;28;20034;-46
2022/07/13 02:22:52;;;;;;;3.28;2.97;;;22.60;73.20;;;;;;5015144;28;20041;-45
2022/07/13 02:25:17;;;;;;;3.20;2.90;;;22.60;73.20;;;;;;5013960;28;20037;-45
2022/07/13 02:27:44;;;;;;;2.88;2.67;;;22.50;73.30;;;;;;5015292;28;20104;-45
2022/07/13 02:30:14;;;;;;;3.47;3.20;;;22.50;73.30;;;;;;5015198;28;20049;-45
2022/07/13 02:32:40;;;;;;;4.15;3.00;;;22.50;73.40;;;;;;5014983;28;20034;-45
2022/07/13 02:35:06;;;;;;;4.57;2.72;;;22.50;73.50;;;;;;5014994;28;20018;-45
2022/07/13 02:37:32;;;;;;;2.80;2.60;;;22.50;73.60;;;;;;5015130;28;20030;-45
2022/07/13 02:39:57;;;;;;;2.92;2.60;;;22.50;73.60;;;;;;5015166;28;20018;-45
2022/07/13 02:42:23;;;;;;;3.17;2.90;;;22.50;73.60;;;;;;5015065;28;20049;-45
2022/07/13 02:44:53;;;;;;;2.83;2.63;;;22.50;73.50;;;;;;5014768;28;20032;-45
2022/07/13 02:47:18;;;;;;;2.90;2.70;;;22.50;73.50;;;;;;5015046;28;20026;-45
2022/07/13 02:49:44;;;;;;;2.78;2.58;;;22.50;73.40;;;;;;5014968;28;20093;-45
2022/07/13 02:52:10;;;;;;;2.80;2.60;;;22.40;73.30;;;;;;5014722;28;20022;-45
2022/07/13 02:54:36;;;;;;;2.67;2.47;;;22.40;73.20;;;;;;5014910;28;20084;-45
2022/07/13 02:57:02;;;;;;;2.42;2.30;;;22.40;73.00;;;;;;5015223;28;20025;-46
2022/07/13 02:59:32;;;;;;;2.70;2.50;;;22.40;73.00;;;;;;5015298;28;20026;-45
2022/07/13 03:01:57;;;;;;;2.70;2.50;;;22.40;72.90;;;;;;5014555;28;20045;-46
2022/07/13 03:04:23;;;;;;;2.70;2.50;;;22.40;72.70;;;;;;5014335;28;20131;-46
2022/07/13 03:06:48;;;;;;;3.80;2.50;;;22.40;72.40;;;;;;5014301;28;20030;-45
2022/07/13 03:09:14;;;;;;;2.40;2.20;;;22.40;72.40;;;;;;5014299;28;20041;-45
2022/07/13 03:11:39;;;;;;;2.70;2.50;;;22.40;72.30;;;;;;5014207;28;20026;-46
2022/07/13 03:14:05;;;;;;;2.75;2.42;;;22.40;72.20;;;;;;5014170;28;20073;-45
2022/07/13 03:16:32;;;;;;;2.42;2.22;;;22.40;72.20;;;;;;5014563;28;20026;-45
2022/07/13 03:18:58;;;;;;;2.47;2.28;;;22.40;72.20;;;;;;5014804;28;20018;-46
2022/07/13 03:21:24;;;;;;;2.70;2.50;;;22.40;72.30;;;;;;5014342;28;20052;-47
2022/07/13 03:23:49;;;;;;;2.55;2.35;;;22.40;72.30;;;;;;5014243;28;20057;-47
2022/07/13 03:26:15;;;;;;;2.20;2.10;;;22.40;72.20;;;;;;5013945;28;20033;-47
2022/07/13 03:28:40;;;;;;;2.40;2.20;;;22.40;72.20;;;;;;5014050;28;20022;-47
2022/07/13 03:31:06;;;;;;;2.53;2.20;;;22.40;72.30;;;;;;5014299;28;20063;-47
2022/07/13 03:33:31;;;;;;;2.20;2.10;;;22.40;72.30;;;;;;5014190;28;20087;-47
2022/07/13 03:35:57;;;;;;;3.03;2.53;;;22.40;72.40;;;;;;5013804;28;20049;-47
2022/07/13 03:38:23;;;;;;;3.15;2.40;;;22.30;72.40;;;;;;5014133;28;20026;-47
2022/07/13 03:40:49;;;;;;;2.90;2.60;;;22.30;72.30;;;;;;5012529;28;20033;-47
2022/07/13 03:43:14;;;;;;;4.03;2.70;;;22.40;72.10;;;;;;5014099;28;20026;-47
2022/07/13 03:45:40;;;;;;;2.83;2.30;;;22.40;71.90;;;;;;5014308;28;20021;-46
2022/07/13 03:48:06;;;;;;;2.40;2.30;;;22.40;71.80;;;;;;5013499;28;20029;-47
2022/07/13 03:50:31;;;;;;;2.72;2.20;;;22.40;71.70;;;;;;5013485;28;20038;-47
2022/07/13 03:52:57;;;;;;;2.97;2.10;;;22.40;71.60;;;;;;5013483;28;20030;-47
2022/07/13 03:55:23;;;;;;;2.55;2.10;;;22.40;71.50;;;;;;5013697;28;20138;-47
2022/07/13 03:57:48;;;;;;;2.40;2.10;;;22.40;71.40;;;;;;5013777;28;20017;-47
2022/07/13 04:00:14;;;;;;;2.42;1.90;;;22.40;71.30;;;;;;5012056;28;20437;-47
2022/07/13 04:02:39;;;;;;;2.97;2.17;;;22.40;71.10;;;;;;5013458;28;20478;-47
2022/07/13 04:05:06;;;;;;;3.22;2.17;;;22.50;71.00;;;;;;5013209;28;20521;-46
2022/07/13 04:07:31;;;;;;;2.50;2.30;;;22.50;70.90;;;;;;5013573;28;20021;-46
2022/07/13 04:09:57;;;;;;;2.10;1.90;;;22.50;70.70;;;;;;5013209;28;20538;-46
2022/07/13 04:12:23;;;;;;;3.03;2.30;;;22.50;70.50;;;;;;5011845;28;20040;-46
2022/07/13 04:14:49;;;;;;;2.33;2.13;;;22.60;70.50;;;;;;5013327;28;20033;-49
2022/07/13 04:17:15;;;;;;;2.67;2.10;;;22.60;70.30;;;;;;5013412;28;20049;-47
2022/07/13 04:19:40;;;;;;;2.33;2.13;;;22.60;70.20;;;;;;5012159;28;20050;-46
2022/07/13 04:22:06;;;;;;;2.83;2.20;;;22.60;70.10;;;;;;5011736;28;20030;-46
2022/07/13 04:24:32;;;;;;;3.72;2.38;;;22.70;70.00;;;;;;5011624;28;20033;-46
2022/07/13 04:26:57;;;;;;;2.30;2.10;;;22.70;70.00;;;;;;5013185;28;20481;-46
2022/07/13 04:29:23;;;;;;;3.45;2.20;;;22.70;69.90;;;;;;5013184;28;20156;-46
2022/07/13 04:31:48;;;;;;;2.33;2.03;;;22.70;69.80;;;;;;5013014;28;20052;-46
2022/07/13 04:34:14;;;;;;;2.45;2.22;;;22.70;69.80;;;;;;5013221;28;20030;-46
2022/07/13 04:36:43;;;;;;;2.35;2.00;;;22.70;69.80;;;;;;5013076;28;20508;-46
2022/07/13 04:39:10;;;;;;;2.17;2.08;;;22.70;69.70;;;;;;5011706;28;20041;-47
2022/07/13 04:41:35;;;;;;;2.78;2.20;;;22.70;69.70;;;;;;5013339;28;20478;-46
2022/07/13 04:44:01;;;;;;;2.17;1.88;;;22.70;69.50;;;;;;5013483;28;20026;-46
2022/07/13 04:46:27;;;;;;;1.95;1.85;;;22.70;69.40;;;;;;5013213;28;20026;-46
2022/07/13 04:48:53;;;;;;;2.80;2.20;;;22.80;69.50;;;;;;5011041;28;20401;-46
2022/07/13 04:51:18;;;;;;;2.63;1.95;;;22.80;69.50;;;;;;5013061;28;20026;-46
2022/07/13 04:53:45;;;;;;;2.42;2.22;;;22.80;69.50;;;;;;5012699;28;20025;-46
2022/07/13 04:56:11;;;;;;;3.08;2.30;;;22.80;69.40;;;;;;5013024;28;20499;-46
2022/07/13 04:58:36;;;;;;;2.60;2.40;;;22.80;69.20;;;;;;5012716;28;20105;-46
2022/07/13 05:01:06;;;;;;;2.95;2.10;;;22.90;69.00;;;;;;5012569;28;20089;-46
2022/07/13 05:03:32;;;;;;;3.67;2.50;;;22.90;68.90;;;;;;5012427;28;20026;-46
2022/07/13 05:05:57;;;;;;;3.42;2.58;;;23.00;68.80;;;;;;5012612;28;20116;-46
2022/07/13 05:08:23;;;;;;;2.40;2.20;;;23.00;68.80;;;;;;5013378;28;20022;-46
2022/07/13 05:10:49;;;;;;;3.15;2.50;;;23.10;68.80;;;;;;5013115;28;20500;-46
2022/07/13 05:13:14;;;;;;;4.22;2.35;;;23.10;68.60;;;;;;5013184;28;20044;-46
2022/07/13 05:15:40;;;;;;;2.88;2.58;;;23.20;68.50;;;;;;5011338;28;20156;-46
2022/07/13 05:18:06;;;;;;;4.03;2.40;;;23.20;68.30;;;;;;5012699;28;20026;-46
2022/07/13 05:20:31;;;;;;;2.67;2.45;;;23.20;68.10;;;;;;5012492;28;20084;-46
2022/07/13 05:22:57;;;;;;;2.90;2.53;;;23.20;67.90;;;;;;5012600;28;20026;-46
2022/07/13 05:25:22;;;;;;;2.63;2.33;;;23.30;67.90;;;;;;5012691;28;20026;-46
2022/07/13 05:27:48;;;;;;;3.33;2.60;;;23.30;67.70;;;;;;5012367;28;20156;-47
2022/07/13 05:30:13;;;;;;;3.15;2.85;;;23.40;67.40;;;;;;5012150;28;20456;-46
2022/07/13 05:32:39;;;;;;;3.33;2.65;;;23.40;67.10;;;;;;5012115;28;20100;-46
2022/07/13 05:35:05;;;;;;;3.10;2.80;;;23.50;67.00;;;;;;5012376;28;20022;-46
2022/07/13 05:37:30;;;;;;;5.70;2.90;;;23.50;66.70;;;;;;5012569;28;20446;-46
2022/07/13 05:39:56;;;;;;;4.40;2.90;;;23.50;66.70;;;;;;5010708;28;20109;-46
2022/07/13 05:42:22;;;;;;;7.18;3.00;;;23.50;66.70;;;;;;5012424;28;20069;-46
2022/07/13 05:44:47;;;;;;;3.42;3.03;;;23.50;66.50;;;;;;5011998;28;20033;-46
2022/07/13 05:47:13;;;;;;;4.72;3.30;;;23.50;66.40;;;;;;5011969;28;20077;-46
2022/07/13 05:49:38;;;;;;;3.20;2.90;;;23.50;66.30;;;;;;5012723;28;20029;-46
2022/07/13 05:52:04;;;;;;;3.80;3.47;;;23.50;66.30;;;;;;5012157;28;20054;-46
2022/07/13 05:54:31;;;;;;;5.55;4.05;;;23.60;66.10;;;;;;5012178;28;20030;-47
2022/07/13 05:56:57;;;;;;;5.20;4.45;;;23.60;65.80;;;;;;5012230;28;20359;-46
2022/07/13 05:59:22;;;;;;;5.45;3.70;;;23.60;65.40;;;;;;5012979;28;20088;-46
2022/07/13 06:01:48;;;;;;;5.10;4.20;;;23.60;65.50;;;;;;5015630;28;20018;-46
2022/07/13 06:04:13;;;;;;;4.88;4.30;;;23.60;65.40;;;;;;5015521;28;20062;-46
2022/07/13 06:06:39;;;;;;;6.25;3.95;;;23.60;66.00;;;;;;5015566;28;20045;-46
2022/07/13 06:09:05;;;;;;;7.00;4.38;;;23.60;65.30;;;;;;5015514;28;20038;-46
2022/07/13 06:11:30;;;;;;;5.78;4.38;;;23.60;65.30;;;;;;5015797;28;20025;-46
2022/07/13 06:13:56;;;;;;;7.88;4.88;;;23.60;65.20;;;;;;5015518;28;20022;-39
2022/07/13 06:16:21;;;;;;;4.75;4.28;;;23.60;65.20;;;;;;5015508;28;20026;-37
2022/07/13 06:18:47;;;;;;;4.68;4.15;;;23.60;65.20;;;;;;5015330;28;20482;-38
2022/07/13 06:21:13;;;;;;;5.70;4.78;;;23.60;65.30;;;;;;5015182;28;20446;-38
2022/07/13 06:23:38;;;;;;;5.22;4.13;;;23.70;65.40;;;;;;5013866;28;20036;-38
2022/07/13 06:26:04;;;;;;;5.55;4.82;;;23.70;65.30;;;;;;5015770;28;20046;-36
2022/07/13 06:28:30;;;;;;;4.90;4.40;;;23.70;65.20;;;;;;5015336;28;20029;-40
2022/07/13 06:30:55;;;;;;;6.45;4.32;;;23.80;65.30;;;;;;5015080;28;20030;-37
2022/07/13 06:33:21;;;;;;;5.10;4.53;;;23.80;65.30;;;;;;5015383;28;20022;-40
2022/07/13 06:35:46;;;;;;;4.78;4.35;;;23.80;65.30;;;;;;5015491;28;20022;-39
2022/07/13 06:38:12;;;;;;;5.50;4.93;;;23.80;65.30;;;;;;5013551;28;20574;-38
2022/07/13 06:40:37;;;;;;;5.45;4.57;;;23.90;65.20;;;;;;5014864;28;20025;-38
2022/07/13 06:43:03;;;;;;;6.38;4.78;;;23.90;65.20;;;;;;5015228;28;20367;-37
2022/07/13 06:45:29;;;;;;;6.22;4.70;;;23.90;65.00;;;;;;5014973;28;20041;-38
2022/07/13 06:47:54;;;;;;;6.30;5.20;;;23.90;65.00;;;;;;5015055;28;20521;-41
2022/07/13 06:50:21;;;;;;;5.40;4.78;;;23.90;64.90;;;;;;5014915;28;20026;-40
2022/07/13 06:52:47;;;;;;;5.80;5.20;;;23.90;64.80;;;;;;5014532;28;20040;-37
2022/07/13 06:55:13;;;;;;;6.00;5.28;;;23.90;64.70;;;;;;5014562;28;20026;-37
2022/07/13 06:57:39;;;;;;;5.30;4.53;;;24.00;65.40;;;;;;5014638;28;20026;-38
2022/07/13 07:00:06;;;;;;;5.50;4.97;;;23.90;64.80;;;;;;5014458;28;20037;-37
2022/07/13 07:02:32;;;;;;;4.50;4.10;;;24.00;64.80;;;;;;5014776;28;20033;-37
2022/07/13 07:04:58;;;;;;;4.40;4.00;;;24.00;64.70;;;;;;5014306;28;20041;-43
2022/07/13 07:07:24;;;;;;;4.45;4.05;;;24.10;64.70;;;;;;5014417;28;20022;-37
2022/07/13 07:09:49;;;;;;;5.30;4.43;;;24.10;64.60;;;;;;5014455;28;20045;-37
2022/07/13 07:12:15;;;;;;;6.20;4.57;;;24.10;64.60;;;;;;5013710;28;20584;-37
2022/07/13 07:14:41;;;;;;;6.25;4.28;;;24.10;65.20;;;;;;5012977;28;20393;-37
2022/07/13 07:17:06;;;;;;;5.80;4.28;;;24.10;64.50;;;;;;5014347;28;20030;-40
2022/07/13 07:19:32;;;;;;;4.97;4.40;;;24.10;64.50;;;;;;5013108;28;20030;-43
2022/07/13 07:21:57;;;;;;;5.95;4.25;;;24.10;64.50;;;;;;5014464;28;20095;-38
2022/07/13 07:24:23;;;;;;;5.45;4.10;;;24.20;64.50;;;;;;5014623;28;20033;-40
2022/07/13 07:26:49;;;;;;;7.45;4.13;;;24.20;64.40;;;;;;5014330;28;20033;-41
2022/07/13 07:29:15;;;;;;;6.03;4.65;;;24.30;64.40;;;;;;5014509;28;20458;-40
2022/07/13 07:31:40;;;;;;;4.50;3.92;;;24.30;64.30;;;;;;5012862;28;20117;-39
2022/07/13 07:34:06;;;;;;;5.82;4.10;;;24.40;64.20;;;;;;5013846;28;20054;-38
2022/07/13 07:36:32;;;;;;;5.13;4.25;;;24.50;64.20;;;;;;5014129;28;20018;-41
2022/07/13 07:38:58;;;;;;;5.20;4.13;;;24.50;64.10;;;;;;5012550;28;20393;-39
2022/07/13 07:41:23;;;;;;;5.20;4.35;;;24.60;64.00;;;;;;5013863;28;20075;-48
2022/07/13 07:43:49;;;;;;;6.45;4.53;;;24.60;64.00;;;;;;5014020;28;20038;-47
2022/07/13 07:46:15;;;;;;;5.28;4.25;;;24.70;63.70;;;;;;5014178;28;20030;-48
2022/07/13 07:48:40;;;;;;;4.30;3.80;;;24.90;63.50;;;;;;5014519;28;20482;-48
2022/07/13 07:51:06;;;;;;;5.63;4.22;;;25.00;63.30;;;;;;5014245;28;20029;-48
2022/07/13 07:53:32;;;;;;;7.20;3.97;;;25.10;63.00;;;;;;5014355;28;20014;-49
2022/07/13 07:55:57;;;;;;;5.03;3.60;;;25.20;62.80;;;;;;5014298;28;20118;-47
2022/07/13 07:58:23;;;;;;;4.35;3.72;;;25.30;62.70;;;;;;5013990;28;20390;-47
2022/07/13 08:00:49;;;;;;;5.78;3.70;;;25.30;62.20;;;;;;5013556;28;20037;-45
2022/07/13 08:03:14;;;;;;;8.10;3.50;;;25.40;62.10;;;;;;5013471;28;20036;-44
2022/07/13 08:05:42;;;;;;;4.28;3.60;;;25.40;62.10;;;;;;5013316;28;20053;-45
2022/07/13 08:08:08;;;;;;;4.57;3.22;;;25.40;61.90;;;;;;5013607;28;20454;-44
2022/07/13 08:10:33;;;;;;;4.47;3.60;;;25.40;61.60;;;;;;5013537;28;20026;-43
2022/07/13 08:13:03;;;;;;;4.50;3.50;;;25.40;61.50;;;;;;5013297;28;20026;-45
2022/07/13 08:15:29;;;;;;;3.95;3.03;;;25.30;61.60;;;;;;5013513;28;20032;-44
2022/07/13 08:17:56;;;;;;;4.18;3.03;;;25.20;61.70;;;;;;5013245;28;20036;-44
2022/07/13 08:20:22;;;;;;;3.13;2.83;;;25.20;61.90;;;;;;5013069;28;20489;-45
2022/07/13 08:22:48;;;;;;;4.43;2.85;;;25.20;62.20;;;;;;5012167;28;20096;-44
2022/07/13 08:25:13;;;;;;;5.80;3.10;;;25.20;62.30;;;;;;5013085;28;20034;-44
2022/07/13 08:27:39;;;;;;;4.70;3.00;;;25.20;62.30;;;;;;5013079;28;20033;-45
2022/07/13 08:30:05;;;;;;;4.78;3.15;;;25.20;62.40;;;;;;5012968;28;20029;-45
2022/07/13 08:32:31;;;;;;;3.55;3.15;;;25.20;62.40;;;;;;5013198;28;20015;-45
2022/07/13 08:40:25;;;;;;;4.47;3.15;;;25.40;62.30;;;;;;5013646;28;20044;-45
2022/07/13 08:42:50;;;;;;;4.15;2.90;;;25.50;62.10;;;;;;5011401;28;20418;-45
2022/07/13 08:45:17;;;;;;;5.22;3.22;;;25.60;62.00;;;;;;5013440;28;20030;-45
2022/07/13 08:47:43;;;;;;;4.82;3.50;;;25.60;61.90;;;;;;5013086;28;20381;-46
2022/07/13 08:50:09;;;;;;;5.53;3.22;;;25.60;62.20;;;;;;5013112;28;20028;-45
2022/07/13 08:52:37;;;;;;;5.72;2.90;;;25.60;62.40;;;;;;5013042;28;20101;-44
2022/07/13 08:55:05;;;;;;;3.22;2.92;;;25.70;62.50;;;;;;5012993;28;20025;-45
2022/07/13 08:57:34;;;;;;;4.28;3.35;;;25.70;62.30;;;;;;5013050;28;20030;-45
2022/07/13 09:00:00;;;;;;;4.50;2.97;;;25.80;61.60;;;;;;5012741;28;20388;-45
2022/07/13 09:02:26;;;;;;;3.80;3.22;;;25.80;61.20;;;;;;5013009;28;20147;-45
2022/07/13 09:04:52;;;;;;;4.53;3.50;;;25.90;60.90;;;;;;5012684;28;20204;-45
2022/07/13 09:07:18;;;;;;;6.38;3.30;;;25.90;60.20;;;;;;5012671;28;20049;-45
2022/07/13 09:09:44;;;;;;;5.68;3.22;;;25.90;60.00;;;;;;5012729;28;20500;-45
2022/07/13 09:12:17;;;;;;;5.00;3.10;;;26.00;60.20;;;;;;5012379;28;20033;-45
2022/07/13 09:15:05;;;;;;;4.82;3.30;;;26.10;60.50;;;;;;5012329;28;20026;-45
2022/07/13 09:17:33;;;;;;;5.35;3.05;;;26.10;60.70;;;;;;5012927;28;20022;-45
2022/07/13 09:20:20;;;;;;;3.58;3.03;;;26.20;60.60;;;;;;5012447;28;20358;-46
2022/07/13 09:22:46;;;;;;;4.85;3.15;;;26.20;60.60;;;;;;5012361;28;20018;-45
2022/07/13 09:25:23;;;;;;;4.80;3.15;;;26.30;60.60;;;;;;5012293;28;20029;-45
2022/07/13 09:27:50;;;;;;;3.40;2.80;;;26.20;60.40;;;;;;5012274;28;20022;-45
2022/07/13 09:30:23;;;;;;;5.00;3.47;;;26.20;60.30;;;;;;5012362;28;20504;-45
2022/07/13 09:32:51;;;;;;;3.75;3.30;;;26.30;60.50;;;;;;5010649;28;20108;-45
2022/07/13 09:35:16;;;;;;;7.40;3.08;;;26.30;60.70;;;;;;5015098;28;20029;-45
2022/07/13 09:37:42;;;;;;;4.68;3.53;;;26.30;60.70;;;;;;5016232;28;20041;-45
2022/07/13 09:40:10;;;;;;;4.30;3.40;;;26.30;60.60;;;;;;5015993;28;20076;-46
2022/07/13 09:42:40;;;;;;;5.13;3.35;;;26.30;60.50;;;;;;5016182;28;20516;-47
2022/07/13 09:47:56;;;;;;;4.82;3.65;;;26.40;60.40;;;;;;5016148;28;20461;-46
2022/07/13 09:50:23;;;;;;;3.55;2.72;;;26.50;60.30;;;;;;5016105;28;20014;-45
2022/07/13 09:52:51;;;;;;;3.78;3.17;;;26.60;60.30;;;;;;5015616;28;20426;-45
2022/07/13 09:55:23;;;;;;;3.83;2.88;;;26.60;60.30;;;;;;5015621;28;20022;-45
2022/07/13 09:57:52;;;;;;;7.13;3.60;;;26.60;60.30;;;;;;5014514;28;20401;-45
2022/07/13 10:00:18;;;;;;;3.28;2.78;;;26.70;59.70;;;;;;5013972;28;20540;-45
2022/07/13 10:02:48;;;;;;;3.83;3.38;;;26.70;59.60;;;;;;5014240;28;20014;-46
2022/07/13 10:05:18;;;;;;;5.57;2.78;;;26.80;59.40;;;;;;5015390;28;20054;-45
2022/07/13 10:07:45;;;;;;;3.95;3.33;;;26.80;59.20;;;;;;5015352;28;20033;-45
2022/07/13 10:11:01;;;;;;;3.80;2.92;;;26.90;58.50;;;;;;5109936;27;20295;-44
2022/07/13 10:13:26;;;;;;;4.45;3.20;;;26.90;58.80;;;;;;5109668;28;20458;-45
2022/07/13 10:15:52;;;;;;;5.15;3.03;;;27.00;58.70;;;;;;5109810;28;20020;-46
2022/07/13 10:18:25;;;;;;;3.45;2.80;;;27.00;58.30;;;;;;5108283;28;20024;-44
2022/07/13 10:21:01;;;;;;;3.60;2.60;;;27.00;58.00;;;;;;5108399;28;20126;-45
2022/07/13 10:23:45;;;;;;;4.53;2.67;;;27.10;58.00;;;;;;5110023;28;20090;-42
2022/07/13 10:26:31;;;;;;;5.13;3.42;;;27.10;57.80;;;;;;5110166;28;20039;-39
2022/07/13 10:29:05;;;;;;;3.17;2.75;;;27.10;57.50;;;;;;5108504;28;20028;-38
2022/07/13 10:31:33;;;;;;;3.72;2.65;;;27.20;57.30;;;;;;5110149;28;20038;-39
2022/07/13 10:34:01;;;;;;;3.67;2.38;;;27.20;57.20;;;;;;5110030;28;20031;-40
2022/07/13 10:36:51;;;;;;;3.10;2.60;;;27.20;57.30;;;;;;5109702;28;20027;-38
2022/07/13 10:39:22;;;;;;;3.10;2.70;;;27.30;57.20;;;;;;5109553;28;20038;-39
2022/07/13 10:42:03;;;;;;;5.47;3.08;;;27.40;57.00;;;;;;5109502;28;20028;-39
2022/07/13 10:44:40;;;;;;;2.78;2.45;;;27.50;57.00;;;;;;5108023;28;20383;-39
2022/07/13 10:47:08;;;;;;;3.22;2.40;;;27.60;56.90;;;;;;5109916;28;20020;-39
2022/07/13 10:49:48;;;;;;;3.78;2.40;;;27.70;56.90;;;;;;5109497;28;20055;-39
2022/07/13 10:55:04;;;;;;;5.22;2.50;;;27.80;56.60;;;;;;5109675;28;20038;-39
2022/07/13 10:57:30;;;;;;;3.63;2.30;;;27.90;56.40;;;;;;5109821;28;20024;-46
2022/07/13 11:00:28;;;;;;;3.83;2.13;;;28.00;56.40;;;;;;5109504;28;20032;-39
2022/07/13 11:03:01;;;;;;;2.85;2.60;;;28.10;56.10;;;;;;5109594;28;20059;-39
2022/07/13 11:05:30;;;;;;;4.55;2.45;;;28.10;56.50;;;;;;5109709;28;20356;-37
2022/07/13 11:07:57;;;;;;;3.60;2.35;;;28.20;55.90;;;;;;5109338;28;20035;-40
2022/07/13 11:10:30;;;;;;;3.10;2.45;;;28.20;55.80;;;;;;5108882;28;20426;-39
2022/07/13 11:13:04;;;;;;;6.85;2.50;;;28.20;55.80;;;;;;5109269;28;20524;-39
2022/07/13 11:15:52;;;;;;;6.07;3.10;;;28.30;55.70;;;;;;5108969;28;20475;-39
2022/07/13 11:18:21;;;;;;;5.95;3.15;;;28.30;55.40;;;;;;5109047;28;20038;-40
2022/07/13 11:21:06;;;;;;;2.60;2.25;;;28.30;55.30;;;;;;5104276;28;20044;-37
2022/07/13 11:26:44;;;;;;;2.45;2.17;;;28.40;55.50;;;;;;5095019;28;20085;-40
2022/07/13 11:29:18;;;;;;;3.33;2.28;;;28.50;55.30;;;;;;5095188;28;20487;-40
2022/07/13 11:31:45;;;;;;;2.50;2.00;;;28.60;54.40;;;;;;5094861;28;20059;-40
2022/07/13 11:34:11;;;;;;;2.10;1.90;;;28.60;53.30;;;;;;5095387;28;20024;-38
2022/07/13 11:36:43;;;;;;;2.42;1.50;;;28.70;52.70;;;;;;5095704;28;20020;-40
2022/07/13 11:39:23;;;;;;;3.60;1.60;;;28.70;52.20;;;;;;5093978;28;20396;-39
2022/07/13 11:41:51;;;;;;;1.55;1.45;;;28.70;51.20;;;;;;5095256;28;20117;-39
2022/07/13 11:44:35;;;;;;;2.45;1.80;;;28.70;50.60;;;;;;5095143;28;20106;-39
2022/07/13 11:47:03;;;;;;;2.05;1.33;;;28.70;50.20;;;;;;5094838;28;20024;-39
2022/07/13 11:49:40;;;;;;;2.88;1.35;;;28.70;50.20;;;;;;5094961;28;20491;-39
2022/07/13 11:52:06;;;;;;;1.27;1.17;;;28.70;48.80;;;;;;5094648;28;20097;-39
2022/07/13 11:54:32;;;;;;;1.25;1.15;;;28.70;48.70;;;;;;5094673;28;20032;-39
2022/07/13 11:56:58;;;;;;;1.98;1.20;;;28.70;47.80;;;;;;5093535;28;20032;-39
2022/07/13 11:59:40;;;;;;;2.45;1.10;;;28.70;47.00;;;;;;5094634;28;20028;-40
2022/07/13 12:02:08;;;;;;;2.38;1.20;;;28.70;47.00;;;;;;5094975;28;20483;-38
2022/07/13 12:04:47;;;;;;;1.90;1.30;;;28.70;46.40;;;;;;5093168;28;20084;-39
2022/07/13 12:07:18;;;;;;;1.13;1.02;;;28.70;46.40;;;;;;5094596;28;20390;-38
2022/07/13 12:09:47;;;;;;;1.30;1.10;;;28.80;46.20;;;;;;5094322;28;20056;-38
2022/07/13 12:12:14;;;;;;;1.25;1.15;;;28.80;45.80;;;;;;5095059;28;20097;-39
2022/07/13 12:14:40;;;;;;;1.60;1.10;;;28.80;45.50;;;;;;5094394;28;20028;-45
2022/07/13 12:17:07;;;;;;;4.22;1.40;;;28.90;45.20;;;;;;5094659;28;20024;-45
2022/07/13 12:19:33;;;;;;;2.47;1.38;;;28.90;45.10;;;;;;5094623;28;20028;-38
2022/07/13 12:22:00;;;;;;;4.90;1.30;;;29.10;45.30;;;;;;5094168;28;20035;-39
2022/07/13 12:24:29;;;;;;;1.83;1.33;;;29.20;45.30;;;;;;5093925;28;20052;-39
2022/07/13 12:26:55;;;;;;;1.50;1.30;;;29.30;45.20;;;;;;5094498;28;20039;-39
2022/07/13 12:29:32;;;;;;;1.38;1.27;;;29.40;45.30;;;;;;5094266;28;20131;-39
2022/07/13 12:31:58;;;;;;;2.45;1.40;;;29.60;45.30;;;;;;5093620;28;20028;-38
2022/07/13 12:34:24;;;;;;;1.98;1.40;;;29.70;44.90;;;;;;5093371;28;20112;-39
2022/07/13 12:36:51;;;;;;;1.83;1.50;;;29.80;44.80;;;;;;5093973;28;20047;-39
2022/07/13 12:39:36;;;;;;;1.42;1.17;;;29.90;44.70;;;;;;5093806;28;20024;-39
2022/07/13 12:42:02;;;;;;;1.25;1.17;;;30.00;44.50;;;;;;5094121;28;20433;-39
2022/07/13 12:44:32;;;;;;;2.47;1.35;;;30.10;44.50;;;;;;5092405;28;20099;-38
2022/07/13 12:46:59;;;;;;;1.65;1.30;;;30.20;44.50;;;;;;5094312;28;20031;-39
2022/07/13 12:49:36;;;;;;;2.22;1.17;;;30.30;44.20;;;;;;5093726;28;20028;-39
2022/07/13 12:52:08;;;;;;;2.03;1.33;;;30.40;44.30;;;;;;5092573;28;20024;-40
2022/07/13 12:54:51;;;;;;;1.90;1.60;;;30.40;44.10;;;;;;5093912;28;20032;-40
2022/07/13 12:57:18;;;;;;;3.35;1.40;;;30.50;44.10;;;;;;5093668;28;20024;-40
2022/07/13 13:00:21;;;;;;;1.90;1.67;;;30.50;44.20;;;;;;5093562;28;20103;-39
2022/07/13 13:02:47;;;;;;;2.00;1.40;;;30.50;44.20;;;;;;5081313;28;20082;-38
2022/07/13 13:05:13;;;;;;;3.33;1.25;;;30.30;44.60;;;;;;5093237;28;20047;-39